createdAt,value
2018-01-13T00:00:56.095Z,1016.13
2018-01-13T00:01:56.696Z,1016.13
2018-01-13T00:02:57.290Z,1016.07
2018-01-13T00:03:57.896Z,1016.07
2018-01-13T00:04:58.504Z,1016.08
2018-01-13T00:05:59.104Z,1016.07
2018-01-13T00:06:59.712Z,1016.09
2018-01-13T00:08:00.338Z,1016.08
2018-01-13T00:09:00.915Z,1016.04
2018-01-13T00:10:01.515Z,1016.04
2018-01-13T00:11:02.112Z,1016.08
2018-01-13T00:12:02.714Z,1016.06
2018-01-13T00:13:03.301Z,1016.05
2018-01-13T00:14:03.897Z,1016.04
2018-01-13T00:15:04.502Z,1016.05
2018-01-13T00:16:05.100Z,1016.01
2018-01-13T00:17:05.702Z,1016.01
2018-01-13T00:18:06.299Z,1016.01
2018-01-13T00:19:06.900Z,1016.03
2018-01-13T00:20:07.497Z,1016.04
2018-01-13T00:21:08.099Z,1016.04
2018-01-13T00:22:08.702Z,1016.04
2018-01-13T00:23:09.314Z,1016.03
2018-01-13T00:24:09.903Z,1016.02
2018-01-13T00:25:10.501Z,1016.02
2018-01-13T00:26:11.096Z,1016.03
2018-01-13T00:27:11.700Z,1016.02
2018-01-13T00:28:12.291Z,1016.04
2018-01-13T00:29:12.879Z,1016.04
2018-01-13T00:30:13.477Z,1016.07
2018-01-13T00:31:14.074Z,1016.10
2018-01-13T00:32:14.677Z,1016.09
2018-01-13T00:33:15.274Z,1016.12
2018-01-13T00:34:15.872Z,1016.10
2018-01-13T00:35:16.481Z,1016.10
2018-01-13T00:36:17.087Z,1016.09
2018-01-13T00:37:17.683Z,1016.09
2018-01-13T00:38:18.289Z,1016.08
2018-01-13T00:39:18.883Z,1016.07
2018-01-13T00:40:19.475Z,1016.06
2018-01-13T00:41:20.069Z,1016.08
2018-01-13T00:42:20.675Z,1016.08
2018-01-13T00:43:21.282Z,1016.12
2018-01-13T00:44:21.890Z,1016.11
2018-01-13T00:45:22.495Z,1016.07
2018-01-13T00:46:23.108Z,1016.06
2018-01-13T00:47:23.718Z,1016.06
2018-01-13T00:48:24.325Z,1016.03
2018-01-13T00:49:24.918Z,1016.04
2018-01-13T00:50:25.522Z,1016.04
2018-01-13T00:51:26.123Z,1016.07
2018-01-13T00:52:26.727Z,1016.04
2018-01-13T00:53:27.316Z,1016.06
2018-01-13T00:54:27.913Z,1016.07
2018-01-13T00:55:28.510Z,1016.12
2018-01-13T00:56:29.103Z,1016.10
2018-01-13T00:57:29.703Z,1016.08
2018-01-13T00:58:30.306Z,1016.06
2018-01-13T00:59:30.909Z,1016.05
2018-01-13T01:01:15.723Z,1016.04
2018-01-13T01:02:16.325Z,1016.01
2018-01-13T01:03:16.927Z,1015.98
2018-01-13T01:04:17.531Z,1016.00
2018-01-13T01:05:18.158Z,1016.03
2018-01-13T01:06:18.761Z,1016.03
2018-01-13T01:07:19.372Z,1016.02
2018-01-13T01:08:19.971Z,1016.05
2018-01-13T01:09:20.572Z,1016.03
2018-01-13T01:10:21.169Z,1016.04
2018-01-13T01:11:21.765Z,1016.06
2018-01-13T01:12:22.376Z,1016.07
2018-01-13T01:13:22.981Z,1016.06
2018-01-13T01:14:23.571Z,1016.06
2018-01-13T01:15:24.172Z,1016.05
2018-01-13T01:16:24.758Z,1016.05
2018-01-13T01:17:25.356Z,1016.03
2018-01-13T01:18:25.995Z,1016.01
2018-01-13T01:19:26.588Z,1016.02
2018-01-13T01:20:34.499Z,1016.04
2018-01-13T01:21:35.474Z,1016.01
2018-01-13T01:22:36.070Z,1016.01
2018-01-13T01:23:36.676Z,1015.98
2018-01-13T01:24:37.283Z,1015.99
2018-01-13T01:25:37.887Z,1015.99
2018-01-13T01:26:38.484Z,1015.97
2018-01-13T01:27:39.089Z,1016.02
2018-01-13T01:28:39.684Z,1015.98
2018-01-13T01:29:40.276Z,1016.00
2018-01-13T01:30:40.876Z,1016.00
2018-01-13T01:31:41.480Z,1016.01
2018-01-13T01:32:42.092Z,1016.02
2018-01-13T01:33:42.703Z,1016.00
2018-01-13T01:34:43.291Z,1016.03
2018-01-13T01:35:43.884Z,1016.01
2018-01-13T01:36:44.485Z,1015.98
2018-01-13T01:37:45.094Z,1015.97
2018-01-13T01:38:45.694Z,1015.94
2018-01-13T01:39:46.290Z,1015.98
2018-01-13T01:40:46.893Z,1015.96
2018-01-13T01:41:47.506Z,1015.96
2018-01-13T01:42:48.122Z,1015.98
2018-01-13T01:43:48.709Z,1015.97
2018-01-13T01:44:49.310Z,1016.00
2018-01-13T01:45:49.910Z,1015.98
2018-01-13T01:46:50.505Z,1015.98
2018-01-13T01:47:51.112Z,1015.98
2018-01-13T01:48:51.714Z,1015.97
2018-01-13T01:49:52.315Z,1015.95
2018-01-13T01:50:52.911Z,1015.97
2018-01-13T01:51:53.511Z,1015.94
2018-01-13T01:52:54.115Z,1015.92
2018-01-13T01:53:54.714Z,1015.96
2018-01-13T01:54:55.303Z,1015.94
2018-01-13T01:55:55.905Z,1015.93
2018-01-13T01:56:56.509Z,1015.95
2018-01-13T01:57:57.106Z,1015.91
2018-01-13T01:58:57.700Z,1015.88
2018-01-13T01:59:58.311Z,1015.90
2018-01-13T02:00:58.895Z,1015.89
2018-01-13T02:01:59.496Z,1015.89
2018-01-13T02:03:00.093Z,1015.88
2018-01-13T02:04:00.692Z,1015.89
2018-01-13T02:05:01.297Z,1015.86
2018-01-13T02:06:01.890Z,1015.86
2018-01-13T02:07:02.478Z,1015.89
2018-01-13T02:08:03.081Z,1015.81
2018-01-13T02:09:03.690Z,1015.86
2018-01-13T02:10:04.285Z,1015.83
2018-01-13T02:11:04.883Z,1015.81
2018-01-13T02:12:05.486Z,1015.83
2018-01-13T02:13:06.081Z,1015.81
2018-01-13T02:14:06.672Z,1015.85
2018-01-13T02:15:07.277Z,1015.85
2018-01-13T02:16:07.883Z,1015.82
2018-01-13T02:17:08.484Z,1015.82
2018-01-13T02:18:09.080Z,1015.79
2018-01-13T02:19:09.681Z,1015.82
2018-01-13T02:20:10.279Z,1015.79
2018-01-13T02:21:10.890Z,1015.80
2018-01-13T02:22:11.492Z,1015.78
2018-01-13T02:23:12.083Z,1015.77
2018-01-13T02:24:12.680Z,1015.77
2018-01-13T02:25:13.266Z,1015.76
2018-01-13T02:26:13.863Z,1015.73
2018-01-13T02:27:14.452Z,1015.72
2018-01-13T02:28:15.053Z,1015.72
2018-01-13T02:29:15.655Z,1015.71
2018-01-13T02:30:16.258Z,1015.74
2018-01-13T02:31:16.863Z,1015.79
2018-01-13T02:32:17.466Z,1015.77
2018-01-13T02:33:18.081Z,1015.74
2018-01-13T02:34:18.689Z,1015.78
2018-01-13T02:35:19.297Z,1015.78
2018-01-13T02:36:19.901Z,1015.78
2018-01-13T02:37:20.518Z,1015.80
2018-01-13T02:38:21.118Z,1015.77
2018-01-13T02:39:21.714Z,1015.78
2018-01-13T02:40:22.310Z,1015.80
2018-01-13T02:41:22.915Z,1015.76
2018-01-13T02:42:23.516Z,1015.77
2018-01-13T02:43:24.116Z,1015.77
2018-01-13T02:44:24.704Z,1015.77
2018-01-13T02:45:25.303Z,1015.73
2018-01-13T02:46:25.907Z,1015.74
2018-01-13T02:47:26.511Z,1015.71
2018-01-13T02:48:27.118Z,1015.72
2018-01-13T02:49:27.725Z,1015.71
2018-01-13T02:50:28.325Z,1015.68
2018-01-13T02:51:28.915Z,1015.67
2018-01-13T02:52:29.504Z,1015.64
2018-01-13T02:53:30.100Z,1015.65
2018-01-13T02:54:30.697Z,1015.63
2018-01-13T02:55:31.287Z,1015.65
2018-01-13T02:56:31.884Z,1015.65
2018-01-13T02:57:32.476Z,1015.60
2018-01-13T02:58:33.081Z,1015.60
2018-01-13T02:59:33.690Z,1015.60
2018-01-13T03:00:34.292Z,1015.63
2018-01-13T03:01:34.893Z,1015.64
2018-01-13T03:02:35.494Z,1015.65
2018-01-13T03:03:36.084Z,1015.70
2018-01-13T03:04:36.675Z,1015.69
2018-01-13T03:05:37.274Z,1015.71
2018-01-13T03:06:37.864Z,1015.72
2018-01-13T03:07:38.461Z,1015.66
2018-01-13T03:08:39.051Z,1015.66
2018-01-13T03:09:39.652Z,1015.65
2018-01-13T03:10:40.243Z,1015.66
2018-01-13T03:11:40.840Z,1015.65
2018-01-13T03:12:41.436Z,1015.62
2018-01-13T03:13:42.031Z,1015.61
2018-01-13T03:14:42.625Z,1015.62
2018-01-13T03:15:43.223Z,1015.66
2018-01-13T03:16:43.824Z,1015.62
2018-01-13T03:17:44.418Z,1015.61
2018-01-13T03:18:45.013Z,1015.59
2018-01-13T03:19:45.610Z,1015.60
2018-01-13T03:20:46.208Z,1015.60
2018-01-13T03:21:46.798Z,1015.59
2018-01-13T03:22:47.405Z,1015.63
2018-01-13T03:23:47.999Z,1015.58
2018-01-13T03:24:48.598Z,1015.62
2018-01-13T03:25:49.196Z,1015.63
2018-01-13T03:26:49.794Z,1015.62
2018-01-13T03:27:50.393Z,1015.58
2018-01-13T03:28:50.995Z,1015.60
2018-01-13T03:29:51.584Z,1015.55
2018-01-13T03:30:52.178Z,1015.59
2018-01-13T03:31:52.782Z,1015.54
2018-01-13T03:32:53.387Z,1015.55
2018-01-13T03:33:53.989Z,1015.57
2018-01-13T03:34:54.593Z,1015.57
2018-01-13T03:35:55.183Z,1015.57
2018-01-13T03:36:55.779Z,1015.59
2018-01-13T03:37:56.380Z,1015.57
2018-01-13T03:38:56.986Z,1015.60
2018-01-13T03:39:57.590Z,1015.52
2018-01-13T03:40:58.179Z,1015.57
2018-01-13T03:41:58.779Z,1015.49
2018-01-13T03:42:59.378Z,1015.48
2018-01-13T03:43:59.981Z,1015.51
2018-01-13T03:45:00.589Z,1015.52
2018-01-13T03:46:01.191Z,1015.48
2018-01-13T03:47:01.793Z,1015.49
2018-01-13T03:48:02.394Z,1015.49
2018-01-13T03:49:03.001Z,1015.50
2018-01-13T03:50:03.608Z,1015.47
2018-01-13T03:51:04.211Z,1015.47
2018-01-13T03:52:04.813Z,1015.49
2018-01-13T03:53:05.413Z,1015.48
2018-01-13T03:54:06.011Z,1015.47
2018-01-13T03:55:06.616Z,1015.44
2018-01-13T03:56:07.215Z,1015.45
2018-01-13T03:57:07.811Z,1015.43
2018-01-13T03:58:08.440Z,1015.36
2018-01-13T03:59:09.019Z,1015.33
2018-01-13T04:00:09.616Z,1015.35
2018-01-13T04:01:10.221Z,1015.32
2018-01-13T04:02:10.827Z,1015.38
2018-01-13T04:03:11.422Z,1015.37
2018-01-13T04:04:12.018Z,1015.34
2018-01-13T04:05:12.620Z,1015.32
2018-01-13T04:06:13.219Z,1015.31
2018-01-13T04:07:13.826Z,1015.34
2018-01-13T04:08:14.431Z,1015.30
2018-01-13T04:09:15.033Z,1015.27
2018-01-13T04:10:15.640Z,1015.29
2018-01-13T04:11:16.235Z,1015.28
2018-01-13T04:12:16.833Z,1015.25
2018-01-13T04:13:17.443Z,1015.26
2018-01-13T04:14:18.048Z,1015.23
2018-01-13T04:15:18.649Z,1015.22
2018-01-13T04:16:19.237Z,1015.26
2018-01-13T04:17:19.829Z,1015.22
2018-01-13T04:18:20.438Z,1015.23
2018-01-13T04:19:21.035Z,1015.23
2018-01-13T04:20:21.646Z,1015.23
2018-01-13T04:21:22.241Z,1015.20
2018-01-13T04:22:22.857Z,1015.20
2018-01-13T04:23:23.463Z,1015.19
2018-01-13T04:24:24.057Z,1015.21
2018-01-13T04:25:24.655Z,1015.14
2018-01-13T04:26:25.251Z,1015.12
2018-01-13T04:27:25.854Z,1015.15
2018-01-13T04:28:26.450Z,1015.16
2018-01-13T04:29:27.049Z,1015.15
2018-01-13T04:30:27.645Z,1015.16
2018-01-13T04:31:28.251Z,1015.11
2018-01-13T04:32:28.862Z,1015.14
2018-01-13T04:33:29.474Z,1015.13
2018-01-13T04:34:30.076Z,1015.19
2018-01-13T04:35:30.670Z,1015.16
2018-01-13T04:36:31.266Z,1015.14
2018-01-13T04:37:31.863Z,1015.16
2018-01-13T04:38:32.452Z,1015.15
2018-01-13T04:39:33.052Z,1015.15
2018-01-13T04:40:33.648Z,1015.14
2018-01-13T04:41:34.245Z,1015.15
2018-01-13T04:42:34.845Z,1015.13
2018-01-13T04:43:35.454Z,1015.13
2018-01-13T04:44:36.047Z,1015.13
2018-01-13T04:45:36.644Z,1015.13
2018-01-13T04:46:37.245Z,1015.08
2018-01-13T04:47:37.870Z,1015.08
2018-01-13T04:48:38.470Z,1015.09
2018-01-13T04:49:39.067Z,1015.13
2018-01-13T04:50:39.686Z,1015.11
2018-01-13T04:51:40.267Z,1015.11
2018-01-13T04:52:40.872Z,1015.10
2018-01-13T04:53:41.472Z,1015.04
2018-01-13T04:54:42.068Z,1015.04
2018-01-13T04:55:42.677Z,1015.04
2018-01-13T04:56:43.267Z,1015.02
2018-01-13T04:57:43.858Z,1015.00
2018-01-13T04:58:44.465Z,1014.99
2018-01-13T04:59:45.061Z,1015.00
2018-01-13T05:00:45.675Z,1014.93
2018-01-13T05:01:46.279Z,1014.95
2018-01-13T05:02:46.884Z,1014.97
2018-01-13T05:03:47.492Z,1014.97
2018-01-13T05:04:48.084Z,1014.94
2018-01-13T05:05:48.692Z,1014.96
2018-01-13T05:06:49.289Z,1014.95
2018-01-13T05:07:49.893Z,1014.99
2018-01-13T05:08:50.495Z,1014.98
2018-01-13T05:09:51.083Z,1014.97
2018-01-13T05:10:51.674Z,1014.94
2018-01-13T05:11:52.270Z,1015.00
2018-01-13T05:12:53.864Z,1014.97
2018-01-13T05:13:54.466Z,1014.97
2018-01-13T05:14:55.069Z,1014.97
2018-01-13T05:15:55.677Z,1015.01
2018-01-13T05:16:56.268Z,1015.01
2018-01-13T05:17:56.865Z,1014.96
2018-01-13T05:18:57.468Z,1014.98
2018-01-13T05:19:58.065Z,1015.02
2018-01-13T05:20:58.661Z,1015.00
2018-01-13T05:21:59.267Z,1014.95
2018-01-13T05:22:59.863Z,1014.99
2018-01-13T05:24:00.463Z,1014.94
2018-01-13T05:25:01.055Z,1014.95
2018-01-13T05:26:01.655Z,1014.91
2018-01-13T05:27:02.259Z,1014.93
2018-01-13T05:28:02.863Z,1014.91
2018-01-13T05:29:03.458Z,1014.90
2018-01-13T05:30:04.042Z,1014.87
2018-01-13T05:31:04.644Z,1014.87
2018-01-13T05:32:05.240Z,1014.86
2018-01-13T05:33:05.837Z,1014.82
2018-01-13T05:34:06.425Z,1014.84
2018-01-13T05:35:07.022Z,1014.83
2018-01-13T05:36:07.619Z,1014.79
2018-01-13T05:37:08.227Z,1014.79
2018-01-13T05:38:08.821Z,1014.80
2018-01-13T05:39:09.410Z,1014.83
2018-01-13T05:40:10.007Z,1014.88
2018-01-13T05:41:10.607Z,1014.88
2018-01-13T05:42:11.202Z,1014.84
2018-01-13T05:43:11.805Z,1014.85
2018-01-13T05:44:12.409Z,1014.88
2018-01-13T05:45:13.012Z,1014.90
2018-01-13T05:46:13.600Z,1014.88
2018-01-13T05:47:14.199Z,1014.89
2018-01-13T05:48:14.790Z,1014.89
2018-01-13T05:49:15.387Z,1014.87
2018-01-13T05:50:15.985Z,1014.90
2018-01-13T05:51:16.585Z,1014.86
2018-01-13T05:52:17.183Z,1014.92
2018-01-13T05:53:17.789Z,1014.90
2018-01-13T05:54:18.388Z,1014.89
2018-01-13T05:55:19.000Z,1014.90
2018-01-13T05:56:19.609Z,1014.86
2018-01-13T05:57:20.214Z,1014.89
2018-01-13T05:58:20.826Z,1014.92
2018-01-13T05:59:21.423Z,1014.89
2018-01-13T06:00:22.018Z,1014.89
2018-01-13T06:01:22.623Z,1014.90
2018-01-13T06:02:23.222Z,1014.88
2018-01-13T06:03:23.826Z,1014.92
2018-01-13T06:04:24.437Z,1014.87
2018-01-13T06:05:25.040Z,1014.86
2018-01-13T06:06:25.643Z,1014.90
2018-01-13T06:07:26.233Z,1014.95
2018-01-13T06:08:26.822Z,1014.98
2018-01-13T06:09:27.430Z,1014.91
2018-01-13T06:10:28.032Z,1014.90
2018-01-13T06:11:28.635Z,1014.88
2018-01-13T06:12:29.231Z,1014.88
2018-01-13T06:13:29.830Z,1014.89
2018-01-13T06:14:30.434Z,1014.91
2018-01-13T06:15:31.034Z,1014.93
2018-01-13T06:16:31.637Z,1014.93
2018-01-13T06:17:32.240Z,1014.92
2018-01-13T06:18:32.838Z,1014.89
2018-01-13T06:19:33.454Z,1014.92
2018-01-13T06:20:34.050Z,1014.93
2018-01-13T06:21:34.654Z,1014.88
2018-01-13T06:22:35.249Z,1014.90
2018-01-13T06:23:35.858Z,1014.88
2018-01-13T06:24:36.451Z,1014.92
2018-01-13T06:25:37.050Z,1014.89
2018-01-13T06:26:37.647Z,1014.90
2018-01-13T06:27:38.247Z,1014.89
2018-01-13T06:28:38.854Z,1014.91
2018-01-13T06:29:39.453Z,1014.88
2018-01-13T06:30:40.100Z,1014.88
2018-01-13T06:31:40.663Z,1014.86
2018-01-13T06:32:41.248Z,1014.87
2018-01-13T06:33:41.842Z,1014.87
2018-01-13T06:34:42.440Z,1014.88
2018-01-13T06:35:43.040Z,1014.87
2018-01-13T06:36:43.644Z,1014.85
2018-01-13T06:37:44.248Z,1014.81
2018-01-13T06:38:44.848Z,1014.81
2018-01-13T06:39:45.481Z,1014.85
2018-01-13T06:40:46.047Z,1014.82
2018-01-13T06:41:46.633Z,1014.86
2018-01-13T06:42:47.248Z,1014.81
2018-01-13T06:43:47.818Z,1014.85
2018-01-13T06:44:48.416Z,1014.83
2018-01-13T06:45:49.013Z,1014.84
2018-01-13T06:46:49.613Z,1014.82
2018-01-13T06:47:50.225Z,1014.84
2018-01-13T06:48:50.836Z,1014.82
2018-01-13T06:49:51.442Z,1014.81
2018-01-13T06:50:52.041Z,1014.81
2018-01-13T06:51:52.637Z,1014.82
2018-01-13T06:52:53.245Z,1014.82
2018-01-13T06:53:53.839Z,1014.81
2018-01-13T06:54:54.440Z,1014.82
2018-01-13T06:55:55.042Z,1014.81
2018-01-13T06:56:55.639Z,1014.84
2018-01-13T06:57:56.238Z,1014.77
2018-01-13T06:58:56.836Z,1014.80
2018-01-13T06:59:57.440Z,1014.80
2018-01-13T07:00:58.052Z,1014.76
2018-01-13T07:01:58.663Z,1014.82
2018-01-13T07:02:59.255Z,1014.80
2018-01-13T07:03:59.855Z,1014.75
2018-01-13T07:05:00.462Z,1014.83
2018-01-13T07:06:01.068Z,1014.79
2018-01-13T07:07:01.662Z,1014.82
2018-01-13T07:08:02.269Z,1014.80
2018-01-13T07:09:02.867Z,1014.84
2018-01-13T07:10:03.466Z,1014.81
2018-01-13T07:11:04.060Z,1014.82
2018-01-13T07:12:04.666Z,1014.79
2018-01-13T07:13:05.274Z,1014.76
2018-01-13T07:14:05.871Z,1014.75
2018-01-13T07:15:06.462Z,1014.71
2018-01-13T07:16:07.057Z,1014.65
2018-01-13T07:17:07.667Z,1014.67
2018-01-13T07:18:08.266Z,1014.70
2018-01-13T07:19:08.858Z,1014.63
2018-01-13T07:20:09.463Z,1014.70
2018-01-13T07:21:10.052Z,1014.64
2018-01-13T07:22:10.650Z,1014.68
2018-01-13T07:23:11.263Z,1014.55
2018-01-13T07:24:11.865Z,1014.57
2018-01-13T07:25:12.475Z,1014.59
2018-01-13T07:26:13.083Z,1014.56
2018-01-13T07:27:13.686Z,1014.49
2018-01-13T07:28:14.298Z,1014.48
2018-01-13T07:29:14.878Z,1014.49
2018-01-13T07:30:15.487Z,1014.45
2018-01-13T07:31:16.083Z,1014.47
2018-01-13T07:32:16.689Z,1014.43
2018-01-13T07:33:17.287Z,1014.43
2018-01-13T07:34:17.886Z,1014.42
2018-01-13T07:35:18.481Z,1014.39
2018-01-13T07:36:19.111Z,1014.33
2018-01-13T07:37:19.674Z,1014.37
2018-01-13T07:38:20.290Z,1014.38
2018-01-13T07:39:20.883Z,1014.40
2018-01-13T07:40:21.488Z,1014.37
2018-01-13T07:41:22.087Z,1014.35
2018-01-13T07:42:22.696Z,1014.35
2018-01-13T07:43:23.296Z,1014.28
2018-01-13T07:44:23.901Z,1014.24
2018-01-13T07:45:24.511Z,1014.30
2018-01-13T07:46:25.113Z,1014.33
2018-01-13T07:47:25.717Z,1014.31
2018-01-13T07:48:26.355Z,1014.31
2018-01-13T07:49:26.905Z,1014.26
2018-01-13T07:50:27.503Z,1014.23
2018-01-13T07:51:28.099Z,1014.23
2018-01-13T07:52:28.691Z,1014.25
2018-01-13T07:53:29.290Z,1014.20
2018-01-13T07:54:29.897Z,1014.13
2018-01-13T07:55:30.490Z,1014.21
2018-01-13T07:56:31.093Z,1014.17
2018-01-13T07:57:31.684Z,1014.19
2018-01-13T07:58:32.296Z,1014.22
2018-01-13T07:59:32.929Z,1014.17
2018-01-13T08:00:33.523Z,1014.18
2018-01-13T08:01:34.124Z,1014.18
2018-01-13T08:02:34.729Z,1014.18
2018-01-13T08:03:35.332Z,1014.24
2018-01-13T08:04:35.934Z,1014.25
2018-01-13T08:05:36.533Z,1014.27
2018-01-13T08:06:37.126Z,1014.31
2018-01-13T08:07:37.724Z,1014.29
2018-01-13T08:08:38.325Z,1014.31
2018-01-13T08:09:38.924Z,1014.28
2018-01-13T08:10:39.529Z,1014.35
2018-01-13T08:11:40.131Z,1014.33
2018-01-13T08:12:40.743Z,1014.32
2018-01-13T08:13:41.347Z,1014.32
2018-01-13T08:14:41.952Z,1014.38
2018-01-13T08:15:42.563Z,1014.35
2018-01-13T08:16:43.154Z,1014.39
2018-01-13T08:17:43.780Z,1014.40
2018-01-13T08:18:44.355Z,1014.36
2018-01-13T08:19:44.962Z,1014.38
2018-01-13T08:20:45.575Z,1014.40
2018-01-13T08:21:46.181Z,1014.40
2018-01-13T08:22:46.776Z,1014.41
2018-01-13T08:23:47.382Z,1014.43
2018-01-13T08:24:47.985Z,1014.47
2018-01-13T08:25:48.577Z,1014.45
2018-01-13T08:26:49.179Z,1014.39
2018-01-13T08:27:49.779Z,1014.45
2018-01-13T08:28:50.382Z,1014.49
2018-01-13T08:29:50.977Z,1014.44
2018-01-13T08:30:51.579Z,1014.53
2018-01-13T08:31:52.191Z,1014.51
2018-01-13T08:32:52.783Z,1014.49
2018-01-13T08:33:53.375Z,1014.44
2018-01-13T08:34:54.037Z,1014.52
2018-01-13T08:35:54.607Z,1014.49
2018-01-13T08:36:55.210Z,1014.47
2018-01-13T08:37:55.828Z,1014.50
2018-01-13T08:38:56.426Z,1014.51
2018-01-13T08:39:57.024Z,1014.54
2018-01-13T08:40:57.626Z,1014.54
2018-01-13T08:41:58.233Z,1014.59
2018-01-13T08:42:58.844Z,1014.55
2018-01-13T08:43:59.476Z,1014.61
2018-01-13T08:45:00.064Z,1014.53
2018-01-13T08:46:00.657Z,1014.59
2018-01-13T08:47:01.261Z,1014.60
2018-01-13T08:48:01.864Z,1014.61
2018-01-13T08:49:02.463Z,1014.64
2018-01-13T08:50:03.087Z,1014.67
2018-01-13T08:51:03.691Z,1014.60
2018-01-13T08:52:04.303Z,1014.66
2018-01-13T08:53:04.914Z,1014.70
2018-01-13T08:54:05.558Z,1014.73
2018-01-13T08:55:06.117Z,1014.61
2018-01-13T08:56:06.718Z,1014.69
2018-01-13T08:57:07.335Z,1014.67
2018-01-13T08:58:07.930Z,1014.72
2018-01-13T08:59:08.551Z,1014.60
2018-01-13T09:00:09.155Z,1014.71
2018-01-13T09:01:09.763Z,1014.74
2018-01-13T09:02:10.372Z,1014.72
2018-01-13T09:03:11.007Z,1014.82
2018-01-13T09:04:11.568Z,1014.82
2018-01-13T09:05:12.168Z,1014.79
2018-01-13T09:06:12.782Z,1014.84
2018-01-13T09:07:13.369Z,1014.82
2018-01-13T09:08:13.984Z,1014.79
2018-01-13T09:09:14.588Z,1014.83
2018-01-13T09:10:15.185Z,1014.81
2018-01-13T09:11:15.785Z,1014.81
2018-01-13T09:12:16.398Z,1014.81
2018-01-13T09:13:16.993Z,1014.84
2018-01-13T09:14:17.591Z,1014.82
2018-01-13T09:15:18.191Z,1014.77
2018-01-13T09:16:18.808Z,1014.88
2018-01-13T09:17:19.412Z,1014.86
2018-01-13T09:18:20.015Z,1014.86
2018-01-13T09:19:20.624Z,1014.79
2018-01-13T09:20:21.217Z,1014.90
2018-01-13T09:21:21.815Z,1014.92
2018-01-13T09:22:22.416Z,1014.81
2018-01-13T09:23:23.016Z,1014.82
2018-01-13T09:24:23.618Z,1014.80
2018-01-13T09:25:24.229Z,1014.82
2018-01-13T09:26:24.840Z,1014.77
2018-01-13T09:27:25.456Z,1014.78
2018-01-13T09:28:26.081Z,1014.76
2018-01-13T09:29:26.673Z,1014.78
2018-01-13T09:30:27.267Z,1014.78
2018-01-13T09:31:27.878Z,1014.75
2018-01-13T09:32:28.487Z,1014.79
2018-01-13T09:33:29.078Z,1014.84
2018-01-13T09:34:29.679Z,1014.83
2018-01-13T09:35:30.274Z,1014.85
2018-01-13T09:36:30.872Z,1014.79
2018-01-13T09:37:31.480Z,1014.86
2018-01-13T09:38:32.087Z,1014.90
2018-01-13T09:39:32.696Z,1014.78
2018-01-13T09:40:33.301Z,1014.88
2018-01-13T09:41:33.905Z,1014.88
2018-01-13T09:42:34.508Z,1014.87
2018-01-13T09:43:35.114Z,1014.75
2018-01-13T09:44:35.721Z,1014.91
2018-01-13T09:45:36.311Z,1014.80
2018-01-13T09:46:36.915Z,1014.86
2018-01-13T09:47:37.520Z,1014.93
2018-01-13T09:48:38.121Z,1014.86
2018-01-13T09:49:38.718Z,1014.91
2018-01-13T09:50:39.318Z,1014.93
2018-01-13T09:51:39.922Z,1014.88
2018-01-13T09:52:40.518Z,1014.94
2018-01-13T09:53:41.117Z,1015.00
2018-01-13T09:54:41.720Z,1014.84
2018-01-13T09:55:42.325Z,1014.94
2018-01-13T09:56:42.927Z,1014.98
2018-01-13T09:57:43.530Z,1014.89
2018-01-13T09:58:44.138Z,1014.97
2018-01-13T09:59:44.737Z,1014.97
2018-01-13T10:00:45.348Z,1014.95
2018-01-13T10:01:45.953Z,1014.97
2018-01-13T10:02:46.549Z,1014.98
2018-01-13T10:03:47.154Z,1015.05
2018-01-13T10:04:47.747Z,1014.97
2018-01-13T10:05:48.350Z,1014.98
2018-01-13T10:06:48.960Z,1014.96
2018-01-13T10:07:49.571Z,1014.97
2018-01-13T10:08:50.180Z,1014.64
2018-01-13T10:09:50.788Z,1014.94
2018-01-13T10:10:51.400Z,1014.94
2018-01-13T10:11:52.012Z,1014.99
2018-01-13T10:12:52.609Z,1014.95
2018-01-13T10:13:53.223Z,1014.93
2018-01-13T10:14:53.826Z,1014.96
2018-01-13T10:15:54.427Z,1014.99
2018-01-13T10:16:55.028Z,1014.98
2018-01-13T10:17:55.637Z,1014.90
2018-01-13T10:18:56.240Z,1014.97
2018-01-13T10:19:56.840Z,1015.00
2018-01-13T10:20:57.446Z,1014.82
2018-01-13T10:21:58.053Z,1015.00
2018-01-13T10:22:58.653Z,1015.07
2018-01-13T10:23:59.252Z,1015.02
2018-01-13T10:24:59.850Z,1015.04
2018-01-13T10:26:00.449Z,1014.99
2018-01-13T10:27:01.062Z,1015.09
2018-01-13T10:28:01.659Z,1015.08
2018-01-13T10:29:02.282Z,1014.99
2018-01-13T10:30:02.874Z,1015.07
2018-01-13T10:31:03.485Z,1015.10
2018-01-13T10:32:04.096Z,1015.04
2018-01-13T10:33:04.697Z,1014.91
2018-01-13T10:34:05.290Z,1014.99
2018-01-13T10:35:05.896Z,1014.99
2018-01-13T10:36:06.501Z,1014.96
2018-01-13T10:37:07.105Z,1015.11
2018-01-13T10:38:07.711Z,1015.06
2018-01-13T10:39:08.324Z,1015.07
2018-01-13T10:40:08.945Z,1015.10
2018-01-13T10:41:09.532Z,1015.06
2018-01-13T10:42:10.145Z,1015.09
2018-01-13T10:43:10.761Z,1014.96
2018-01-13T10:44:11.367Z,1015.02
2018-01-13T10:45:11.970Z,1015.01
2018-01-13T10:46:12.567Z,1015.07
2018-01-13T10:47:13.166Z,1015.08
2018-01-13T10:48:13.761Z,1015.09
2018-01-13T10:49:14.366Z,1015.04
2018-01-13T10:50:14.969Z,1015.07
2018-01-13T10:51:15.583Z,1015.08
2018-01-13T10:52:16.192Z,1015.05
2018-01-13T10:53:16.796Z,1015.00
2018-01-13T10:54:17.426Z,1015.03
2018-01-13T10:55:17.995Z,1015.00
2018-01-13T10:56:18.603Z,1014.99
2018-01-13T10:57:19.212Z,1015.00
2018-01-13T10:58:19.822Z,1014.98
2018-01-13T10:59:20.434Z,1014.91
2018-01-13T11:00:21.041Z,1014.91
2018-01-13T11:01:21.636Z,1014.86
2018-01-13T11:02:22.231Z,1014.92
2018-01-13T11:03:22.888Z,1014.70
2018-01-13T11:04:23.451Z,1014.89
2018-01-13T11:05:24.059Z,1014.89
2018-01-13T11:06:24.663Z,1014.84
2018-01-13T11:07:25.271Z,1014.87
2018-01-13T11:08:25.880Z,1014.83
2018-01-13T11:09:26.487Z,1014.80
2018-01-13T11:10:27.094Z,1014.85
2018-01-13T11:11:27.693Z,1014.76
2018-01-13T11:12:28.289Z,1014.77
2018-01-13T11:13:28.879Z,1014.72
2018-01-13T11:14:29.488Z,1014.87
2018-01-13T11:15:30.100Z,1014.76
2018-01-13T11:16:30.697Z,1014.79
2018-01-13T11:17:31.298Z,1014.69
2018-01-13T11:18:31.907Z,1014.83
2018-01-13T11:19:32.515Z,1014.77
2018-01-13T11:20:33.123Z,1014.75
2018-01-13T11:21:33.739Z,1014.79
2018-01-13T11:22:34.352Z,1014.80
2018-01-13T11:23:34.949Z,1014.74
2018-01-13T11:24:35.546Z,1014.67
2018-01-13T11:25:36.145Z,1014.75
2018-01-13T11:26:36.745Z,1014.75
2018-01-13T11:27:37.341Z,1014.79
2018-01-13T11:28:37.944Z,1014.72
2018-01-13T11:29:38.550Z,1014.75
2018-01-13T11:30:39.167Z,1014.68
2018-01-13T11:31:39.782Z,1014.68
2018-01-13T11:32:40.389Z,1014.60
2018-01-13T11:33:40.997Z,1014.64
2018-01-13T11:34:41.597Z,1014.66
2018-01-13T11:35:42.203Z,1014.67
2018-01-13T11:36:42.812Z,1014.58
2018-01-13T11:37:43.407Z,1014.60
2018-01-13T11:39:59.487Z,1014.56
2018-01-13T11:41:00.090Z,1014.60
2018-01-13T11:42:00.686Z,1014.61
2018-01-13T11:43:01.295Z,1014.59
2018-01-13T11:44:01.904Z,1014.55
2018-01-13T11:45:02.510Z,1014.56
2018-01-13T11:46:03.116Z,1014.51
2018-01-13T11:47:03.726Z,1014.52
2018-01-13T11:48:04.331Z,1014.56
2018-01-13T11:49:04.946Z,1014.51
2018-01-13T11:50:05.567Z,1014.52
2018-01-13T11:51:06.172Z,1014.52
2018-01-13T11:52:06.774Z,1014.55
2018-01-13T11:53:07.373Z,1014.46
2018-01-13T11:54:07.978Z,1014.43
2018-01-13T11:55:08.592Z,1014.38
2018-01-13T11:56:09.194Z,1014.38
2018-01-13T11:57:09.792Z,1014.40
2018-01-13T11:58:10.393Z,1014.38
2018-01-13T11:59:10.994Z,1014.37
2018-01-13T12:00:11.595Z,1014.30
2018-01-13T12:01:12.200Z,1014.30
2018-01-13T12:02:12.810Z,1014.20
2018-01-13T12:03:13.411Z,1014.26
2018-01-13T12:04:14.020Z,1014.22
2018-01-13T12:05:14.630Z,1014.21
2018-01-13T12:06:15.231Z,1014.21
2018-01-13T12:07:15.839Z,1014.18
2018-01-13T12:08:16.439Z,1014.23
2018-01-13T12:09:17.047Z,1014.17
2018-01-13T12:10:17.665Z,1014.15
2018-01-13T12:11:18.258Z,1014.19
2018-01-13T12:12:18.864Z,1014.09
2018-01-13T12:13:19.475Z,1014.15
2018-01-13T12:14:20.076Z,1014.20
2018-01-13T12:15:20.687Z,1014.17